Terminal Aerodrome Forecast
Issued by NWS

Home | Current Version | Previous Version | Text Only | Print | Product List | Glossary On
Versions: 1 2 3 4 5 6 7 8 9 10 11 12 13 14 15 16 17 18 19 20 21
000
FTUS46 KOTX 231731
TAFSFF
TAF
KSFF 231731Z 2318/2418 20010KT P6SM -SHRA SCT009 BKN019 OVC045
     FM232200 22015G24KT 6SM -TSRA BKN030 BKN040CB OVC060
     FM240100 23008KT P6SM BKN050
     FM241000 23004KT P6SM SCT016 BKN080=

USA.gov is the U.S. government's official web portal to all federal, state and local government web resources and services.